createdAt,value
2018-09-10T07:13:52.507Z,19.1
2018-09-10T07:18:50.175Z,19.2
2018-09-10T07:23:47.429Z,18.2
2018-09-10T07:28:45.059Z,19.1
2018-09-10T07:33:42.331Z,19.1
2018-09-10T07:38:39.733Z,19.2
2018-09-10T07:43:37.101Z,19.2
2018-09-10T07:48:34.348Z,19.3
2018-09-10T07:53:31.991Z,19.3
2018-09-10T07:58:29.940Z,19.4
2018-09-10T08:03:27.203Z,19.4
2018-09-10T08:08:24.924Z,19.5
2018-09-10T08:13:22.438Z,19.6
2018-09-10T08:18:20.064Z,19.7
2018-09-10T08:23:17.818Z,20.5
2018-09-10T08:28:15.695Z,19.8
2018-09-10T08:33:13.129Z,19.9
2018-09-10T08:38:10.887Z,20
2018-09-10T08:43:08.275Z,20.2
2018-09-10T08:48:05.566Z,20.3
2018-09-10T08:53:02.775Z,20.4
2018-09-10T08:58:00.837Z,20.5
2018-09-10T09:02:58.291Z,20.6
2018-09-10T09:07:55.918Z,20.7
2018-09-10T09:12:53.470Z,20.8
2018-09-10T09:17:49.991Z,20.7
2018-09-10T09:22:47.419Z,20.8
2018-09-10T09:27:45.173Z,20.8
2018-09-10T09:32:42.605Z,20.7
2018-09-10T09:37:39.861Z,21.1
2018-09-10T09:42:37.658Z,22
2018-09-10T09:47:34.970Z,21.4
2018-09-10T09:52:32.423Z,21.5
2018-09-10T09:57:30.637Z,21.7
2018-09-10T10:02:27.873Z,22
2018-09-10T10:07:25.538Z,22.3
2018-09-10T10:12:23.373Z,22.3
2018-09-10T10:17:20.690Z,22.2
2018-09-10T10:22:18.393Z,22.6
2018-09-10T10:27:16.275Z,22.2
2018-09-10T10:32:13.674Z,22.3
2018-09-10T10:37:11.176Z,22.4
2018-09-10T10:42:08.913Z,22.4
2018-09-10T10:47:06.491Z,22.6
2018-09-10T10:52:04.109Z,23
2018-09-10T10:57:01.955Z,23.3
2018-09-10T11:01:59.624Z,23.5
2018-09-10T11:06:57.317Z,23.6
2018-09-10T11:11:54.903Z,23.8
2018-09-10T11:16:52.532Z,24.1
2018-09-10T11:21:50.213Z,23.5
2018-09-10T11:26:48.012Z,24.3
2018-09-10T11:31:45.615Z,24.6
2018-09-10T11:36:43.322Z,24.5
2018-09-10T11:41:40.893Z,24.7
2018-09-10T11:46:38.591Z,24.9
2018-09-10T11:51:36.201Z,25.2
2018-09-10T11:56:34.244Z,24.4
2018-09-10T12:01:32.036Z,25.5
2018-09-10T12:06:29.975Z,25.4
2018-09-10T12:11:27.424Z,25.3
2018-09-10T12:16:25.962Z,24.8
2018-09-10T12:21:23.406Z,25.2
2018-09-10T12:26:21.144Z,25
2018-09-10T12:31:18.842Z,25
2018-09-10T12:36:16.866Z,24.3
2018-09-10T12:41:14.294Z,24.7
2018-09-10T12:46:11.638Z,24.9
2018-09-10T12:51:09.191Z,24.8
2018-09-10T12:56:06.825Z,24.6
2018-09-10T13:01:04.368Z,24.9
2018-09-10T13:06:02.534Z,24.3
2018-09-10T13:11:00.111Z,24.7
2018-09-10T13:15:56.895Z,25.5
2018-09-10T13:20:54.392Z,24.9
2018-09-10T13:25:52.717Z,25.5
2018-09-10T13:30:50.716Z,25
2018-09-10T13:35:48.308Z,25.7
2018-09-10T13:40:46.090Z,24.9
2018-09-10T13:45:43.200Z,25.4
2018-09-10T13:50:40.745Z,25.5
2018-09-10T13:55:38.982Z,25.5
2018-09-10T14:00:36.656Z,25.4
2018-09-10T14:05:34.507Z,25.4
2018-09-10T14:10:31.910Z,25.4
2018-09-10T14:15:29.369Z,25.3
2018-09-10T14:20:27.360Z,24.5
2018-09-10T14:25:24.930Z,25.2
2018-09-10T14:30:23.685Z,25.2
2018-09-10T14:35:20.334Z,25.1
2018-09-10T14:40:17.638Z,25.1
2018-09-10T14:45:15.213Z,25
2018-09-10T14:50:12.692Z,24.9
2018-09-10T14:55:10.844Z,24.9
2018-09-10T15:00:09.162Z,24.8
2018-09-10T15:05:06.894Z,24.7
2018-09-10T15:10:04.336Z,24.7
2018-09-10T15:15:01.342Z,24.6
2018-09-10T15:19:58.776Z,24.6
2018-09-10T15:24:56.098Z,24.6
2018-09-10T15:29:53.478Z,24.5
2018-09-10T15:34:51.254Z,23.7
2018-09-10T15:39:48.184Z,24.4
2018-09-10T15:44:45.730Z,24.3
2018-09-10T15:49:43.144Z,24.2
2018-09-10T15:54:41.447Z,23.5
2018-09-10T15:59:38.770Z,23.9
2018-09-10T16:04:36.686Z,23.4
2018-09-10T16:09:34.063Z,23.9
2018-09-10T16:14:31.334Z,23.9
2018-09-10T16:19:29.498Z,23.1
2018-09-10T16:24:27.248Z,23.1
2018-09-10T16:29:24.790Z,23.5
2018-09-10T16:34:22.183Z,22.9
2018-09-10T16:39:19.737Z,22.8
2018-09-10T16:44:17.415Z,22.8
2018-09-10T16:49:15.023Z,22.5
2018-09-10T16:54:12.525Z,22.6
2018-09-10T16:59:09.954Z,22.6
2018-09-10T17:04:07.831Z,22.5
2018-09-10T17:09:05.813Z,22.6
2018-09-10T17:14:02.937Z,22.5
2018-09-10T17:19:00.585Z,22.4
2018-09-10T17:23:58.221Z,22.3
2018-09-10T17:28:55.708Z,22.2
2018-09-10T17:33:53.429Z,22.2
2018-09-10T17:38:50.876Z,22.1
2018-09-10T17:43:48.163Z,22.2
2018-09-10T17:48:45.443Z,22
2018-09-10T17:53:43.656Z,22
2018-09-10T17:58:41.232Z,21.9
2018-09-10T18:03:38.726Z,21.8
2018-09-10T18:08:36.628Z,22.5
2018-09-10T18:13:33.987Z,21.8
2018-09-10T18:18:31.474Z,21.7
2018-09-10T18:23:28.762Z,21.6
2018-09-10T18:28:26.803Z,22.2
2018-09-10T18:33:23.926Z,21.5
2018-09-10T18:38:21.681Z,22.2
2018-09-10T18:43:19.133Z,21.4
2018-09-10T18:48:17.200Z,22
2018-09-10T18:53:14.947Z,22
2018-09-10T18:58:12.324Z,21.2
2018-09-10T19:03:10.301Z,21.9
2018-09-10T19:08:07.844Z,21.1
2018-09-10T19:13:06.120Z,21.8
2018-09-10T19:18:03.410Z,21
2018-09-10T19:23:01.910Z,20.9
2018-09-10T19:27:58.942Z,21.6
2018-09-10T19:32:56.889Z,21.5
2018-09-10T19:37:54.236Z,20.7
2018-09-10T19:42:52.059Z,21.4
2018-09-10T19:47:49.381Z,20.6
2018-09-10T19:52:46.688Z,20.6
2018-09-10T19:57:44.232Z,21.3
2018-09-10T20:02:42.004Z,21.3
2018-09-10T20:07:39.407Z,20.6
2018-09-10T20:12:37.669Z,21.2
2018-09-10T20:17:34.915Z,20.5
2018-09-10T20:22:32.295Z,20.5
2018-09-10T20:27:30.268Z,21.2
2018-09-10T20:32:27.375Z,20.4
2018-09-10T20:37:25.082Z,20.3
2018-09-10T20:42:22.362Z,20.3
2018-09-10T20:47:19.916Z,19.5
2018-09-10T20:52:17.926Z,20.9
2018-09-10T20:57:15.595Z,20.2
2018-09-10T21:02:13.313Z,20.2
2018-09-10T21:07:11.253Z,20.8
2018-09-10T21:12:08.361Z,20.1
2018-09-10T21:17:05.991Z,20.1
2018-09-10T21:22:03.700Z,20
2018-09-10T21:27:01.645Z,20.7
2018-09-10T21:31:59.187Z,19.8
2018-09-10T21:36:57.129Z,20.6
2018-09-10T21:41:54.913Z,12.5
2018-09-10T21:46:52.196Z,19.9
2018-09-10T21:51:53.972Z,19
2018-09-10T21:56:54.544Z,19.1
2018-09-10T22:01:51.270Z,20.5
2018-09-10T22:06:48.254Z,20.4
2018-09-10T22:11:45.666Z,19.7
2018-09-10T22:16:44.353Z,20.3
2018-09-10T22:21:41.643Z,19.6
2018-09-10T22:26:39.085Z,19.6
2018-09-10T22:31:36.644Z,19.6
2018-09-10T22:36:34.110Z,19.5
2018-09-10T22:41:31.486Z,19.4
2018-09-10T22:46:28.863Z,20.1
2018-09-10T22:51:26.672Z,20.1
2018-09-10T22:56:24.198Z,19.4
2018-09-10T23:01:21.812Z,19.4
2018-09-10T23:06:20.188Z,20.1
2018-09-10T23:11:17.829Z,20
2018-09-10T23:16:14.908Z,19.2
2018-09-10T23:21:12.310Z,19.3
2018-09-10T23:26:09.433Z,19.2
2018-09-10T23:31:07.805Z,19.9
2018-09-10T23:36:05.415Z,19.8
2018-09-10T23:41:03.318Z,19.8
2018-09-10T23:46:00.641Z,19.8
2018-09-10T23:50:57.983Z,19
2018-09-10T23:55:56.183Z,19.7
